Time;durP1;ratioP1;P1;durP2;ratioP2;P2;SDS_P1;SDS_P2;PMS_P1;PMS_P2;Temp;Humidity;BMP_temperature;BMP_pressure;BME280_temperature;BME280_humidity;BME280_pressure;Samples;Min_cycle;Max_cycle;Signal;HPM_P1;HPM_P2
2021/09/16 00:00:24;;;;;;;2.95;1.38;;;24.40;63.60;;;;;;5051521;28;20057;-55
2021/09/16 00:02:50;;;;;;;2.10;1.13;;;24.50;63.50;;;;;;5053875;28;20470;-57
2021/09/16 00:05:17;;;;;;;1.90;1.48;;;24.50;63.30;;;;;;5054291;28;20087;-56
2021/09/16 00:07:44;;;;;;;1.17;1.00;;;24.50;63.30;;;;;;5044052;28;20048;-55
2021/09/16 00:10:11;;;;;;;1.25;1.15;;;24.50;63.20;;;;;;5056283;28;20025;-56
2021/09/16 00:12:36;;;;;;;1.30;1.20;;;24.50;63.20;;;;;;5035937;28;20033;-56
2021/09/16 00:15:03;;;;;;;2.03;1.25;;;24.50;63.20;;;;;;5033972;28;20033;-53
2021/09/16 00:17:29;;;;;;;2.45;1.45;;;24.50;63.20;;;;;;5050634;28;20032;-52
2021/09/16 00:19:54;;;;;;;1.40;1.10;;;24.50;63.10;;;;;;5041086;28;20078;-54
2021/09/16 00:22:20;;;;;;;1.50;1.10;;;24.50;63.20;;;;;;5034500;28;20038;-55
2021/09/16 00:24:46;;;;;;;2.08;1.25;;;24.50;63.10;;;;;;5034339;28;20030;-59
2021/09/16 00:27:11;;;;;;;1.70;1.20;;;24.50;63.10;;;;;;5031485;28;20072;-55
2021/09/16 00:29:37;;;;;;;1.88;0.90;;;24.40;62.90;;;;;;5042436;28;20067;-53
2021/09/16 00:32:03;;;;;;;1.33;1.00;;;24.40;62.90;;;;;;5033176;28;20049;-55
2021/09/16 00:34:28;;;;;;;1.20;0.88;;;24.30;63.00;;;;;;5034287;28;20025;-52
2021/09/16 00:36:54;;;;;;;1.40;0.95;;;24.30;63.00;;;;;;5033285;28;20028;-51
2021/09/16 00:39:19;;;;;;;0.95;0.85;;;24.40;62.90;;;;;;5039908;28;20029;-53
2021/09/16 00:41:45;;;;;;;1.40;1.00;;;24.30;62.80;;;;;;5050987;28;20463;-53
2021/09/16 00:44:11;;;;;;;0.95;0.80;;;24.30;62.70;;;;;;5044584;28;20032;-52
2021/09/16 00:46:36;;;;;;;1.20;1.10;;;24.40;62.80;;;;;;5035313;28;20116;-54
2021/09/16 00:49:06;;;;;;;1.08;0.80;;;24.40;62.90;;;;;;5034179;28;20069;-54
2021/09/16 00:51:33;;;;;;;1.70;1.00;;;24.40;62.90;;;;;;5052455;28;20095;-58
2021/09/16 00:54:00;;;;;;;1.17;0.70;;;24.50;62.80;;;;;;5052748;28;20020;-53
2021/09/16 00:56:26;;;;;;;1.77;1.02;;;24.50;62.70;;;;;;5051649;28;20367;-53
2021/09/16 00:58:53;;;;;;;1.05;0.95;;;24.50;62.60;;;;;;5050211;28;20061;-56
2021/09/16 01:01:19;;;;;;;2.50;0.98;;;24.50;62.60;;;;;;5041629;28;20073;-54
2021/09/16 01:03:45;;;;;;;1.63;0.90;;;24.40;62.50;;;;;;5053626;28;20497;-54
2021/09/16 01:06:11;;;;;;;2.13;1.15;;;24.40;62.60;;;;;;5052716;28;20274;-55
2021/09/16 01:08:38;;;;;;;1.40;0.95;;;24.40;62.80;;;;;;5053538;28;20478;-54
2021/09/16 01:11:04;;;;;;;2.45;0.88;;;24.30;62.70;;;;;;5035601;28;20502;-56
2021/09/16 01:13:29;;;;;;;0.80;0.73;;;24.40;62.60;;;;;;5051550;28;20035;-55
2021/09/16 01:15:58;;;;;;;0.90;0.80;;;24.40;62.50;;;;;;5053012;28;20381;-55
2021/09/16 01:18:24;;;;;;;1.38;0.98;;;24.40;62.50;;;;;;5051475;28;20029;-49
2021/09/16 01:20:49;;;;;;;1.27;0.80;;;24.40;62.50;;;;;;5055004;28;20033;-59
2021/09/16 01:23:15;;;;;;;1.88;1.40;;;24.30;62.40;;;;;;5073305;28;20369;-54
2021/09/16 01:25:41;;;;;;;1.05;0.73;;;24.30;62.50;;;;;;5069117;28;20473;-52
2021/09/16 01:28:07;;;;;;;1.35;0.80;;;24.30;62.40;;;;;;5052988;28;20089;-53
2021/09/16 01:30:33;;;;;;;2.28;1.00;;;24.30;62.40;;;;;;5053403;28;20525;-55
2021/09/16 01:32:59;;;;;;;0.88;0.70;;;24.30;62.40;;;;;;5052711;28;20366;-54
2021/09/16 01:35:26;;;;;;;3.35;0.80;;;24.30;62.40;;;;;;5051993;28;20021;-55
2021/09/16 01:37:52;;;;;;;0.90;0.77;;;24.30;62.30;;;;;;5032912;28;20041;-61
2021/09/16 01:40:18;;;;;;;2.08;0.90;;;24.30;62.40;;;;;;5034641;28;20466;-53
2021/09/16 01:42:45;;;;;;;1.00;0.70;;;24.30;62.30;;;;;;5033312;28;20026;-51
2021/09/16 01:45:23;;;;;;;1.92;0.90;;;24.30;62.30;;;;;;5032390;28;20022;-52
2021/09/16 01:47:50;;;;;;;1.17;0.80;;;24.30;62.30;;;;;;5033135;28;20053;-59
2021/09/16 01:50:18;;;;;;;1.13;0.70;;;24.30;62.30;;;;;;5031307;28;20378;-54
2021/09/16 01:52:44;;;;;;;1.45;0.70;;;24.30;62.40;;;;;;5031787;28;20052;-54
2021/09/16 01:55:11;;;;;;;2.00;0.70;;;24.30;62.50;;;;;;5048631;28;20114;-53
2021/09/16 01:57:37;;;;;;;0.95;0.70;;;24.30;62.50;;;;;;5072947;28;20020;-54
2021/09/16 02:00:08;;;;;;;1.10;0.60;;;24.30;62.60;;;;;;5034255;28;20495;-55
2021/09/16 02:02:33;;;;;;;1.55;0.60;;;24.30;62.70;;;;;;5032993;28;20122;-55
2021/09/16 02:05:00;;;;;;;1.13;0.70;;;24.30;62.80;;;;;;5032084;28;20033;-53
2021/09/16 02:07:26;;;;;;;1.80;0.60;;;24.30;62.80;;;;;;5054985;28;20426;-53
2021/09/16 02:09:52;;;;;;;0.90;0.70;;;24.30;62.80;;;;;;5071702;28;20108;-62
2021/09/16 02:12:18;;;;;;;2.38;0.85;;;24.40;63.00;;;;;;5035411;28;20041;-54
2021/09/16 02:14:43;;;;;;;1.20;0.70;;;24.30;62.90;;;;;;5032834;28;20377;-53
2021/09/16 02:17:09;;;;;;;1.85;0.70;;;24.40;63.10;;;;;;5037035;28;20029;-54
2021/09/16 02:19:34;;;;;;;1.58;1.00;;;24.40;63.10;;;;;;5032834;28;20032;-56
2021/09/16 02:22:00;;;;;;;1.88;0.77;;;24.40;63.20;;;;;;5033278;28;20094;-54
2021/09/16 02:24:26;;;;;;;1.02;0.60;;;24.40;63.30;;;;;;5052435;28;20524;-55
2021/09/16 02:26:52;;;;;;;2.17;0.80;;;24.40;63.30;;;;;;5048522;28;20108;-60
2021/09/16 02:29:17;;;;;;;1.30;0.88;;;24.40;63.30;;;;;;5059209;28;20028;-53
2021/09/16 02:31:43;;;;;;;1.27;0.70;;;24.40;63.30;;;;;;5047642;28;20482;-56
2021/09/16 02:34:08;;;;;;;2.28;1.20;;;24.40;63.40;;;;;;5031419;28;20037;-52
2021/09/16 02:36:34;;;;;;;1.50;0.93;;;24.40;63.40;;;;;;5041239;28;20489;-55
2021/09/16 02:39:00;;;;;;;0.80;0.52;;;24.40;63.40;;;;;;5051160;28;20518;-56
2021/09/16 02:41:27;;;;;;;2.33;0.90;;;24.40;63.40;;;;;;5045964;28;20175;-52
2021/09/16 02:43:53;;;;;;;1.88;0.73;;;24.40;63.40;;;;;;5051249;28;20048;-61
2021/09/16 02:46:18;;;;;;;1.75;1.15;;;24.40;63.40;;;;;;5046909;28;20029;-53
2021/09/16 02:48:44;;;;;;;1.10;0.88;;;24.40;63.50;;;;;;5051792;28;20020;-55
2021/09/16 02:51:10;;;;;;;1.75;0.73;;;24.40;63.50;;;;;;5049595;28;20486;-55
2021/09/16 02:53:35;;;;;;;0.80;0.80;;;24.40;63.50;;;;;;5051732;28;20021;-54
2021/09/16 02:56:01;;;;;;;1.63;0.82;;;24.40;63.50;;;;;;5052609;28;20086;-55
2021/09/16 02:58:26;;;;;;;0.73;0.70;;;24.40;63.60;;;;;;5050610;28;20521;-55
2021/09/16 03:00:52;;;;;;;1.17;0.88;;;24.40;63.60;;;;;;5046931;28;20445;-61
2021/09/16 03:03:18;;;;;;;1.15;0.60;;;24.40;63.60;;;;;;5051707;28;20052;-54
2021/09/16 03:05:46;;;;;;;2.17;0.93;;;24.40;63.60;;;;;;5050938;28;20051;-54
2021/09/16 03:08:12;;;;;;;1.98;0.88;;;24.40;63.70;;;;;;5030922;28;20044;-54
2021/09/16 03:10:38;;;;;;;0.75;0.60;;;24.40;63.80;;;;;;5037628;28;20033;-54
2021/09/16 03:13:03;;;;;;;2.38;0.90;;;24.40;63.80;;;;;;5067630;28;20070;-55
2021/09/16 03:15:29;;;;;;;2.05;0.80;;;24.40;63.80;;;;;;5069471;28;20033;-57
2021/09/16 03:17:55;;;;;;;2.05;0.70;;;24.40;63.90;;;;;;5034605;28;20107;-61
2021/09/16 03:20:20;;;;;;;2.80;0.90;;;24.40;63.90;;;;;;5052146;28;20469;-55
2021/09/16 03:22:46;;;;;;;1.40;0.98;;;24.40;63.90;;;;;;5055879;28;20454;-54
2021/09/16 03:25:12;;;;;;;1.13;0.80;;;24.40;63.90;;;;;;5072725;28;20024;-54
2021/09/16 03:27:38;;;;;;;2.53;0.80;;;24.40;64.00;;;;;;5051358;28;20469;-52
2021/09/16 03:30:06;;;;;;;1.02;0.70;;;24.40;63.90;;;;;;5055187;28;20041;-54
2021/09/16 03:32:32;;;;;;;1.85;0.90;;;24.40;64.00;;;;;;5055217;28;20470;-57
2021/09/16 03:34:58;;;;;;;2.55;0.90;;;24.40;64.10;;;;;;5071086;28;20035;-54
2021/09/16 03:37:23;;;;;;;1.70;0.85;;;24.40;64.00;;;;;;5043093;28;20044;-53
2021/09/16 03:39:49;;;;;;;1.38;0.90;;;24.40;64.10;;;;;;5040437;28;20021;-54
2021/09/16 03:42:15;;;;;;;1.23;0.70;;;24.40;64.10;;;;;;5034734;28;20037;-52
2021/09/16 03:44:40;;;;;;;1.80;0.90;;;24.40;64.10;;;;;;5035152;28;20030;-49
2021/09/16 03:47:06;;;;;;;1.48;0.85;;;24.40;64.20;;;;;;5040168;28;20045;-52
2021/09/16 03:49:38;;;;;;;1.88;1.15;;;24.50;64.20;;;;;;5035301;28;20060;-54
2021/09/16 03:52:05;;;;;;;1.95;0.98;;;24.40;64.20;;;;;;5034668;28;20029;-53
2021/09/16 03:54:31;;;;;;;1.42;0.98;;;24.40;64.20;;;;;;5035320;28;20062;-59
2021/09/16 03:56:56;;;;;;;1.58;0.95;;;24.40;64.30;;;;;;5053080;28;20042;-60
2021/09/16 03:59:22;;;;;;;1.98;1.08;;;24.40;64.20;;;;;;5075168;28;20025;-50
2021/09/16 04:01:47;;;;;;;1.40;0.90;;;24.30;64.20;;;;;;5049530;28;20057;-51
2021/09/16 04:04:13;;;;;;;1.65;1.00;;;24.30;64.30;;;;;;5041254;28;20032;-50
2021/09/16 04:06:39;;;;;;;1.67;0.93;;;24.30;64.30;;;;;;5055025;28;20078;-49
2021/09/16 04:09:04;;;;;;;1.73;0.80;;;24.30;64.30;;;;;;5054100;28;20036;-54
2021/09/16 04:11:30;;;;;;;1.35;0.90;;;24.30;64.30;;;;;;5044546;28;20044;-52
2021/09/16 04:13:55;;;;;;;0.93;0.60;;;24.30;64.30;;;;;;5055602;28;20028;-60
2021/09/16 04:16:21;;;;;;;1.00;0.80;;;24.40;64.40;;;;;;5047963;28;20505;-51
2021/09/16 04:18:47;;;;;;;1.02;0.90;;;24.40;64.30;;;;;;5053557;28;20024;-53
2021/09/16 04:21:12;;;;;;;1.35;1.23;;;24.40;64.30;;;;;;5052125;28;20041;-53
2021/09/16 04:23:38;;;;;;;1.77;0.95;;;24.40;64.40;;;;;;5052948;28;20070;-54
2021/09/16 04:26:04;;;;;;;1.90;0.80;;;24.40;64.40;;;;;;5052843;28;20029;-51
2021/09/16 04:28:29;;;;;;;2.10;1.05;;;24.40;64.40;;;;;;5052550;28;20054;-55
2021/09/16 04:30:55;;;;;;;1.10;0.88;;;24.40;64.40;;;;;;5053118;28;20029;-59
2021/09/16 04:33:21;;;;;;;1.10;0.60;;;24.40;64.40;;;;;;5050769;28;20024;-50
2021/09/16 04:35:47;;;;;;;2.20;0.93;;;24.40;64.40;;;;;;5052184;28;20040;-51
2021/09/16 04:38:15;;;;;;;2.47;1.42;;;24.40;64.40;;;;;;5052566;28;20493;-50
2021/09/16 04:40:41;;;;;;;2.15;1.00;;;24.40;64.40;;;;;;5048397;28;20054;-51
2021/09/16 04:43:07;;;;;;;1.45;0.98;;;24.40;64.40;;;;;;5048935;28;20150;-53
2021/09/16 04:45:33;;;;;;;2.15;0.85;;;24.40;64.40;;;;;;5049182;28;20104;-53
2021/09/16 04:47:58;;;;;;;1.00;0.90;;;24.40;64.50;;;;;;5051773;28;20025;-58
2021/09/16 04:50:24;;;;;;;1.50;0.90;;;24.30;64.90;;;;;;5052741;28;20059;-57
2021/09/16 04:52:49;;;;;;;1.52;0.70;;;24.30;64.50;;;;;;5052880;28;20454;-50
2021/09/16 04:55:15;;;;;;;0.90;0.80;;;24.30;64.50;;;;;;5053410;28;20025;-53
2021/09/16 04:57:41;;;;;;;1.63;0.70;;;24.30;64.50;;;;;;5047993;28;20017;-51
2021/09/16 05:00:08;;;;;;;1.02;0.70;;;24.30;64.50;;;;;;5049687;28;20049;-50
2021/09/16 05:02:34;;;;;;;2.15;1.00;;;24.30;64.50;;;;;;5052845;28;20116;-50
2021/09/16 05:04:59;;;;;;;1.10;1.00;;;24.30;64.50;;;;;;5048988;28;20036;-54
2021/09/16 05:07:25;;;;;;;3.30;0.98;;;24.30;64.40;;;;;;5050583;28;20029;-49
2021/09/16 05:09:51;;;;;;;3.92;1.08;;;24.30;64.40;;;;;;5053132;28;20029;-52
2021/09/16 05:12:16;;;;;;;1.70;1.00;;;24.30;64.40;;;;;;5040872;28;20071;-53
2021/09/16 05:14:42;;;;;;;1.33;0.90;;;24.30;64.40;;;;;;5033814;28;20026;-51
2021/09/16 05:17:07;;;;;;;1.58;1.25;;;24.30;64.40;;;;;;5033088;28;20040;-53
2021/09/16 05:19:33;;;;;;;1.38;0.80;;;24.30;64.40;;;;;;5033925;28;20063;-52
2021/09/16 05:21:59;;;;;;;1.45;0.70;;;24.30;64.40;;;;;;5032715;28;20037;-59
2021/09/16 05:24:24;;;;;;;2.10;1.25;;;24.30;64.50;;;;;;5068736;28;20031;-49
2021/09/16 05:26:50;;;;;;;1.58;0.88;;;24.30;64.50;;;;;;5046627;28;20029;-51
2021/09/16 05:29:16;;;;;;;2.55;1.52;;;24.30;64.40;;;;;;5032854;28;20573;-51
2021/09/16 05:31:41;;;;;;;3.50;1.05;;;24.40;64.50;;;;;;5033226;28;20029;-53
2021/09/16 05:34:07;;;;;;;2.20;1.00;;;24.30;64.50;;;;;;5047307;28;20463;-49
2021/09/16 05:36:33;;;;;;;1.88;1.00;;;24.30;64.50;;;;;;5051184;28;20120;-52
2021/09/16 05:38:58;;;;;;;2.13;1.20;;;24.30;64.60;;;;;;5053193;28;20024;-59
2021/09/16 05:41:24;;;;;;;3.72;0.70;;;24.40;64.50;;;;;;5043144;28;20368;-52
2021/09/16 05:43:50;;;;;;;1.58;0.98;;;24.30;64.60;;;;;;5034811;28;20379;-52
2021/09/16 05:46:16;;;;;;;1.73;0.98;;;24.40;64.70;;;;;;5033504;28;20502;-50
2021/09/16 05:48:42;;;;;;;1.92;0.90;;;24.40;64.70;;;;;;5032855;28;20033;-52
2021/09/16 05:51:07;;;;;;;1.83;1.10;;;24.40;64.80;;;;;;5040371;28;20033;-50
2021/09/16 05:53:33;;;;;;;1.40;1.00;;;24.30;64.80;;;;;;5033154;28;20048;-50
2021/09/16 05:55:59;;;;;;;1.67;0.90;;;24.30;64.80;;;;;;5041404;28;20369;-59
2021/09/16 05:58:25;;;;;;;1.73;0.90;;;24.30;65.40;;;;;;5052455;28;20063;-54
2021/09/16 06:00:50;;;;;;;2.30;1.05;;;24.40;65.00;;;;;;5052219;28;20470;-53
2021/09/16 06:03:16;;;;;;;4.00;1.23;;;24.40;64.90;;;;;;5043698;28;20091;-51
2021/09/16 06:05:42;;;;;;;4.97;1.20;;;24.40;65.00;;;;;;5032540;28;20025;-52
2021/09/16 06:08:07;;;;;;;2.78;1.27;;;24.40;64.80;;;;;;5048116;28;20029;-50
2021/09/16 06:10:33;;;;;;;3.22;0.90;;;24.40;64.70;;;;;;5050694;28;20029;-53
2021/09/16 06:12:59;;;;;;;4.15;1.38;;;24.50;64.90;;;;;;5049086;28;20520;-60
2021/09/16 06:15:24;;;;;;;2.13;1.13;;;24.50;65.30;;;;;;5050357;28;20387;-51
2021/09/16 06:17:50;;;;;;;4.63;1.33;;;24.50;64.70;;;;;;5032658;28;20045;-56
2021/09/16 06:20:16;;;;;;;3.70;1.40;;;24.50;65.10;;;;;;5051445;28;20386;-54
2021/09/16 06:22:46;;;;;;;5.63;1.00;;;24.60;65.20;;;;;;5035090;28;20097;-50
2021/09/16 06:25:14;;;;;;;6.15;1.10;;;24.60;65.40;;;;;;5035022;28;20037;-52
2021/09/16 06:27:40;;;;;;;6.30;1.50;;;24.60;65.80;;;;;;5032447;28;20489;-54
2021/09/16 06:30:06;;;;;;;8.98;1.27;;;24.60;65.70;;;;;;5034388;28;20036;-52
2021/09/16 06:32:33;;;;;;;5.35;1.30;;;24.60;66.10;;;;;;5033242;28;20030;-49
2021/09/16 06:34:59;;;;;;;3.65;1.13;;;24.60;66.00;;;;;;5051623;28;20029;-58
2021/09/16 06:37:25;;;;;;;3.05;1.00;;;24.60;66.60;;;;;;5061252;28;20035;-52
2021/09/16 06:39:51;;;;;;;2.35;1.23;;;24.60;66.30;;;;;;5064395;28;20033;-53
2021/09/16 06:42:17;;;;;;;8.55;2.00;;;24.60;66.40;;;;;;5050319;28;20186;-53
2021/09/16 06:44:42;;;;;;;5.40;1.85;;;24.70;67.30;;;;;;5048527;28;20025;-52
2021/09/16 06:47:08;;;;;;;5.47;2.03;;;24.70;67.10;;;;;;5047597;28;20029;-52
2021/09/16 06:49:39;;;;;;;4.95;1.63;;;24.70;67.00;;;;;;5060369;28;20527;-54
2021/09/16 06:52:05;;;;;;;4.05;1.80;;;24.70;67.30;;;;;;5036491;28;20037;-49
2021/09/16 06:54:30;;;;;;;4.50;1.90;;;24.70;67.60;;;;;;5048722;28;20079;-55
2021/09/16 06:56:56;;;;;;;6.53;2.08;;;24.70;68.30;;;;;;5053190;28;20061;-54
2021/09/16 06:59:22;;;;;;;4.75;2.15;;;24.80;67.90;;;;;;5051374;28;20522;-51
2021/09/16 07:01:47;;;;;;;1.83;1.35;;;24.70;68.50;;;;;;5050252;28;20057;-48
2021/09/16 07:04:13;;;;;;;8.35;2.08;;;24.60;67.60;;;;;;5050796;28;20461;-50
2021/09/16 07:06:39;;;;;;;4.72;2.03;;;24.60;68.80;;;;;;5048791;28;20039;-50
2021/09/16 07:09:05;;;;;;;5.32;1.42;;;24.60;68.50;;;;;;5050641;28;20021;-52
2021/09/16 07:11:31;;;;;;;2.22;1.40;;;24.50;68.20;;;;;;5050761;28;20550;-53
2021/09/16 07:13:57;;;;;;;3.17;1.35;;;24.50;68.30;;;;;;5044678;28;20020;-52
2021/09/16 07:16:22;;;;;;;6.20;1.50;;;24.50;68.50;;;;;;5047468;28;20394;-53
2021/09/16 07:18:48;;;;;;;2.67;1.80;;;24.50;68.50;;;;;;5054934;28;20100;-51
2021/09/16 07:21:14;;;;;;;3.90;1.40;;;24.50;68.50;;;;;;5053058;28;20044;-51
2021/09/16 07:23:39;;;;;;;2.05;1.20;;;24.50;68.60;;;;;;5031434;28;20025;-55
2021/09/16 07:26:05;;;;;;;4.97;2.03;;;24.50;68.30;;;;;;5037054;28;20040;-52
2021/09/16 07:28:34;;;;;;;4.05;1.75;;;24.20;68.00;;;;;;5050516;28;20382;-53
2021/09/16 07:31:00;;;;;;;2.40;1.52;;;24.20;69.50;;;;;;5050953;28;20041;-59
2021/09/16 07:33:26;;;;;;;2.50;1.50;;;24.30;69.00;;;;;;5051234;28;20025;-51
2021/09/16 07:35:51;;;;;;;3.70;1.40;;;24.40;68.60;;;;;;5050572;28;20021;-49
2021/09/16 07:38:17;;;;;;;2.20;1.17;;;24.50;68.00;;;;;;5041172;28;20038;-50
2021/09/16 07:40:42;;;;;;;2.25;1.30;;;24.60;67.80;;;;;;5042770;28;20048;-53
2021/09/16 07:43:09;;;;;;;3.50;1.33;;;24.60;67.70;;;;;;5048689;28;20107;-56
2021/09/16 07:45:36;;;;;;;1.80;1.23;;;24.60;67.60;;;;;;5040247;28;20103;-49
2021/09/16 07:48:01;;;;;;;3.30;1.40;;;24.60;67.40;;;;;;5050796;28;20382;-54
2021/09/16 07:50:27;;;;;;;1.88;1.60;;;24.60;67.40;;;;;;5067035;28;20028;-52
2021/09/16 07:52:53;;;;;;;2.40;1.30;;;24.60;67.50;;;;;;5051281;28;20475;-53
2021/09/16 07:55:18;;;;;;;2.70;1.38;;;24.60;67.50;;;;;;5034243;28;20897;-52
2021/09/16 07:57:44;;;;;;;5.25;1.70;;;24.60;67.60;;;;;;5048686;28;20025;-54
2021/09/16 08:00:11;;;;;;;2.55;2.05;;;24.50;67.60;;;;;;5029946;28;20132;-53
2021/09/16 08:02:47;;;;;;;2.35;1.80;;;24.40;67.50;;;;;;5031188;28;20409;-53
2021/09/16 08:05:14;;;;;;;3.15;2.00;;;24.50;67.50;;;;;;5034390;28;20061;-54
2021/09/16 08:07:40;;;;;;;4.22;2.17;;;24.40;67.20;;;;;;5040890;28;20040;-54
2021/09/16 08:10:06;;;;;;;4.75;1.80;;;24.30;67.40;;;;;;5052845;28;20033;-53
2021/09/16 08:12:31;;;;;;;3.30;1.65;;;24.30;67.50;;;;;;5054673;28;20032;-53
2021/09/16 08:14:58;;;;;;;1.67;1.30;;;24.30;67.30;;;;;;5053432;28;20497;-54
2021/09/16 08:17:24;;;;;;;2.70;1.65;;;24.40;67.10;;;;;;5036935;28;20037;-53
2021/09/16 08:19:49;;;;;;;2.97;1.70;;;24.40;66.90;;;;;;5059903;28;20034;-50
2021/09/16 08:22:15;;;;;;;2.03;1.20;;;24.40;67.00;;;;;;5052557;28;20040;-49
2021/09/16 08:24:42;;;;;;;2.10;1.10;;;24.40;67.30;;;;;;5054389;28;20025;-51
2021/09/16 08:27:08;;;;;;;2.03;1.27;;;24.30;67.00;;;;;;5051406;28;20063;-50
2021/09/16 08:29:34;;;;;;;3.05;1.42;;;24.30;67.20;;;;;;5054700;28;20061;-53
2021/09/16 08:32:00;;;;;;;1.85;1.13;;;24.20;67.10;;;;;;5053102;28;20048;-54
2021/09/16 08:34:27;;;;;;;1.35;1.00;;;24.20;67.20;;;;;;5053726;28;20398;-51
2021/09/16 08:36:54;;;;;;;1.95;1.13;;;24.20;66.90;;;;;;5042628;28;20087;-52
2021/09/16 08:39:20;;;;;;;1.00;0.88;;;24.20;67.10;;;;;;5034438;28;20061;-53
2021/09/16 08:41:46;;;;;;;1.35;1.00;;;24.30;66.60;;;;;;5052962;28;20068;-54
2021/09/16 08:44:14;;;;;;;2.20;1.10;;;24.20;66.80;;;;;;5048102;28;20124;-51
2021/09/16 08:46:39;;;;;;;1.17;0.98;;;24.30;66.70;;;;;;5043995;28;20063;-52
2021/09/16 08:49:05;;;;;;;1.60;1.00;;;24.30;66.30;;;;;;5033585;28;20065;-52
2021/09/16 08:51:31;;;;;;;2.17;0.82;;;24.40;66.30;;;;;;5044837;28;20040;-52
2021/09/16 08:53:58;;;;;;;1.95;1.42;;;24.40;66.20;;;;;;5053376;28;20086;-53
2021/09/16 08:56:23;;;;;;;2.53;0.73;;;24.30;66.20;;;;;;5045833;28;20132;-52
2021/09/16 08:58:52;;;;;;;0.90;0.65;;;24.20;66.10;;;;;;5034963;28;20121;-53
2021/09/16 09:01:18;;;;;;;1.50;0.95;;;24.30;66.30;;;;;;5050470;28;20084;-53
2021/09/16 09:03:45;;;;;;;1.38;0.70;;;24.20;66.50;;;;;;5053549;28;20021;-52
2021/09/16 09:06:27;;;;;;;1.77;0.85;;;24.20;66.10;;;;;;5049837;28;20482;-51
2021/09/16 09:09:14;;;;;;;0.93;0.70;;;24.20;66.30;;;;;;5053699;28;20078;-49
2021/09/16 09:11:58;;;;;;;2.47;1.00;;;24.20;65.90;;;;;;5041727;28;20041;-51
2021/09/16 09:14:34;;;;;;;2.08;0.88;;;24.30;65.70;;;;;;5032878;28;20056;-52
2021/09/16 09:17:02;;;;;;;1.58;1.00;;;24.30;65.80;;;;;;5039876;28;20029;-52
2021/09/16 09:19:29;;;;;;;1.75;1.10;;;24.20;66.10;;;;;;5054281;28;20035;-52
2021/09/16 09:22:00;;;;;;;1.27;1.17;;;24.20;66.20;;;;;;5034327;28;20491;-51
2021/09/16 09:24:30;;;;;;;1.63;1.50;;;24.20;65.50;;;;;;5032687;28;20033;-53
2021/09/16 09:26:56;;;;;;;1.30;0.90;;;24.20;65.40;;;;;;5044181;28;20107;-51
2021/09/16 09:29:21;;;;;;;2.70;1.13;;;24.30;65.70;;;;;;5052681;28;20108;-53
2021/09/16 09:32:00;;;;;;;2.05;1.27;;;24.30;65.70;;;;;;5040545;28;20044;-53
2021/09/16 09:34:35;;;;;;;3.47;1.60;;;24.30;65.00;;;;;;5032561;28;20112;-53
2021/09/16 09:37:10;;;;;;;2.85;1.67;;;24.30;64.80;;;;;;5044339;28;20025;-54
2021/09/16 09:39:36;;;;;;;3.97;1.98;;;24.30;65.20;;;;;;5041984;28;20689;-51
2021/09/16 09:42:22;;;;;;;4.40;2.05;;;24.30;65.30;;;;;;5052791;28;20454;-61
2021/09/16 09:44:52;;;;;;;2.47;1.83;;;24.30;64.70;;;;;;5046992;28;20029;-53
2021/09/16 09:47:38;;;;;;;1.60;1.42;;;24.30;64.90;;;;;;5038238;28;20071;-49
2021/09/16 09:50:15;;;;;;;1.77;1.50;;;24.30;65.00;;;;;;5061045;28;20025;-58
2021/09/16 09:52:40;;;;;;;1.55;1.30;;;24.40;65.10;;;;;;5053082;28;20047;-54
2021/09/16 09:55:15;;;;;;;1.88;1.63;;;24.50;65.00;;;;;;5052184;28;20043;-59
2021/09/16 09:57:41;;;;;;;1.75;1.48;;;24.50;65.00;;;;;;5036337;28;20030;-53
2021/09/16 10:00:12;;;;;;;3.22;1.50;;;24.50;65.20;;;;;;5031763;28;20057;-50
2021/09/16 10:02:50;;;;;;;2.35;1.45;;;24.50;65.10;;;;;;5032715;28;20049;-52
2021/09/16 10:05:38;;;;;;;4.63;1.98;;;24.60;65.40;;;;;;5037680;28;20037;-57
2021/09/16 10:08:06;;;;;;;32.55;7.45;;;24.60;65.40;;;;;;5032643;28;20033;-59
2021/09/16 10:10:43;;;;;;;19.83;5.68;;;24.50;66.20;;;;;;5040069;28;20025;-53
2021/09/16 10:13:17;;;;;;;53.90;10.60;;;24.50;67.30;;;;;;5051717;28;20463;-49
2021/09/16 10:15:44;;;;;;;34.97;11.60;;;24.60;69.70;;;;;;5047122;28;20038;-52
2021/09/16 10:18:09;;;;;;;19.40;7.35;;;24.50;68.50;;;;;;5031868;28;20033;-50
2021/09/16 10:20:35;;;;;;;21.50;6.47;;;24.50;66.00;;;;;;5063847;28;20030;-49
2021/09/16 10:23:05;;;;;;;22.20;6.22;;;24.30;66.20;;;;;;5032543;28;20037;-49
2021/09/16 10:25:31;;;;;;;12.52;4.88;;;24.10;66.40;;;;;;5033152;28;20048;-49
2021/09/16 10:28:03;;;;;;;12.50;5.35;;;24.20;66.50;;;;;;5041913;28;20029;-49
2021/09/16 10:30:31;;;;;;;13.93;3.60;;;24.10;66.40;;;;;;5045995;28;20135;-52
2021/09/16 10:33:18;;;;;;;13.55;4.22;;;24.10;66.70;;;;;;5052040;28;20840;-50
2021/09/16 10:35:58;;;;;;;5.80;4.00;;;24.20;66.00;;;;;;5052287;28;20033;-50
2021/09/16 10:38:27;;;;;;;8.18;3.92;;;24.20;65.70;;;;;;5031580;28;20033;-50
2021/09/16 10:41:11;;;;;;;5.38;3.20;;;24.10;65.20;;;;;;5044771;28;20056;-51
2021/09/16 10:43:37;;;;;;;8.85;3.08;;;24.10;66.20;;;;;;5046670;28;20440;-48
2021/09/16 10:46:25;;;;;;;6.22;3.33;;;24.20;66.30;;;;;;5045212;28;20043;-58
2021/09/16 10:48:52;;;;;;;6.68;2.63;;;24.20;65.30;;;;;;5040981;28;20100;-49
2021/09/16 10:51:40;;;;;;;4.53;3.25;;;24.30;65.40;;;;;;5056425;28;20492;-49
2021/09/16 10:54:27;;;;;;;6.85;2.40;;;24.30;65.40;;;;;;5050636;28;20025;-59
2021/09/16 10:57:04;;;;;;;4.10;2.45;;;24.30;64.90;;;;;;5044770;28;20078;-49
2021/09/16 10:59:51;;;;;;;4.30;2.80;;;24.30;64.80;;;;;;5050864;28;20465;-52
2021/09/16 11:02:17;;;;;;;4.65;3.20;;;24.30;64.30;;;;;;5031759;28;20041;-52
2021/09/16 11:04:55;;;;;;;4.85;2.65;;;24.30;63.80;;;;;;5031061;28;20490;-51
2021/09/16 11:07:30;;;;;;;2.78;2.22;;;24.20;64.00;;;;;;5030869;28;20029;-52
2021/09/16 11:09:57;;;;;;;4.90;2.95;;;24.20;64.10;;;;;;5037061;28;20086;-49
2021/09/16 11:12:30;;;;;;;5.15;2.83;;;24.30;64.70;;;;;;5045610;28;20032;-50
2021/09/16 11:14:57;;;;;;;3.33;2.38;;;24.30;63.70;;;;;;5031818;28;20030;-48
2021/09/16 11:17:27;;;;;;;3.47;2.58;;;24.30;64.20;;;;;;5031172;28;20065;-49
2021/09/16 11:19:53;;;;;;;4.00;3.15;;;24.30;64.30;;;;;;5057687;28;20097;-50
2021/09/16 11:22:24;;;;;;;5.47;3.40;;;24.20;63.20;;;;;;5052547;28;20041;-47
2021/09/16 11:24:54;;;;;;;4.55;3.72;;;24.10;63.80;;;;;;5051773;28;20061;-49
2021/09/16 11:27:27;;;;;;;6.18;3.72;;;24.00;63.70;;;;;;5050569;28;20127;-51
2021/09/16 11:29:54;;;;;;;4.32;3.63;;;24.00;63.80;;;;;;5051283;28;20036;-52
2021/09/16 11:32:20;;;;;;;6.15;3.53;;;24.20;63.30;;;;;;5033585;28;20060;-51
2021/09/16 11:34:57;;;;;;;2.50;2.20;;;24.20;64.00;;;;;;5031278;28;20033;-50
2021/09/16 11:37:31;;;;;;;7.63;3.78;;;24.30;63.10;;;;;;5043662;28;20393;-51
2021/09/16 11:40:17;;;;;;;3.22;2.65;;;24.30;62.70;;;;;;5046759;28;20052;-51
2021/09/16 11:42:45;;;;;;;3.80;3.10;;;24.30;62.90;;;;;;5035163;28;20065;-53
2021/09/16 11:45:13;;;;;;;3.83;2.97;;;24.20;62.90;;;;;;5042701;28;20410;-49
2021/09/16 11:47:44;;;;;;;4.35;3.00;;;24.30;62.80;;;;;;5055084;28;20029;-50
2021/09/16 11:50:38;;;;;;;5.70;3.60;;;24.30;62.40;;;;;;5069464;28;20031;-49
2021/09/16 11:53:08;;;;;;;4.32;3.13;;;24.20;62.60;;;;;;5035540;28;20040;-50
2021/09/16 11:55:40;;;;;;;5.32;2.60;;;24.20;62.50;;;;;;5035164;28;20120;-49
2021/09/16 11:58:18;;;;;;;;;;;24.30;62.30;;;;;;5042427;28;20029;-57
2021/09/16 12:00:47;;;;;;;3.13;2.78;;;24.20;62.70;;;;;;5051483;28;19929;-52
2021/09/16 12:03:27;;;;;;;3.45;2.72;;;24.30;63.00;;;;;;5034339;28;20092;-52
2021/09/16 12:05:57;;;;;;;6.10;3.50;;;24.30;62.30;;;;;;5034803;28;20113;-51
2021/09/16 12:08:30;;;;;;;5.45;3.22;;;24.30;62.30;;;;;;5039419;28;20505;-51
2021/09/16 12:11:01;;;;;;;4.47;3.38;;;24.30;62.10;;;;;;5049376;28;20037;-53
2021/09/16 12:13:39;;;;;;;6.88;3.58;;;24.20;62.20;;;;;;5051779;28;20033;-55
2021/09/16 12:16:10;;;;;;;5.15;3.80;;;24.20;62.20;;;;;;5034944;28;20080;-49
2021/09/16 12:18:39;;;;;;;6.43;4.07;;;24.20;62.30;;;;;;5039581;28;20033;-51
2021/09/16 12:21:07;;;;;;;5.68;4.18;;;24.20;62.10;;;;;;5062572;28;20046;-51
2021/09/16 12:23:33;;;;;;;4.85;4.22;;;24.10;62.10;;;;;;5051446;28;20029;-47
2021/09/16 12:26:06;;;;;;;5.38;4.38;;;24.10;62.20;;;;;;5040219;28;20044;-49
2021/09/16 12:28:32;;;;;;;4.28;3.70;;;24.00;62.80;;;;;;5053847;28;20033;-51
2021/09/16 12:31:05;;;;;;;4.28;3.20;;;24.20;62.90;;;;;;5049782;28;20033;-48
2021/09/16 12:33:38;;;;;;;5.38;3.47;;;24.30;62.50;;;;;;5033719;28;20033;-52
2021/09/16 12:36:21;;;;;;;5.28;4.25;;;24.30;62.40;;;;;;5035050;28;20064;-52
2021/09/16 12:38:55;;;;;;;4.80;4.10;;;24.20;62.60;;;;;;5054544;28;20029;-53
2021/09/16 12:41:39;;;;;;;7.20;5.07;;;24.20;62.50;;;;;;5048654;28;20087;-54
2021/09/16 12:44:07;;;;;;;5.72;4.85;;;24.30;61.50;;;;;;5050585;28;20105;-51
2021/09/16 12:46:39;;;;;;;7.78;5.07;;;24.20;62.20;;;;;;5043043;28;20041;-49
2021/09/16 12:49:05;;;;;;;6.85;5.38;;;24.10;61.70;;;;;;5052478;28;20083;-50